Time;durP1;ratioP1;P1;durP2;ratioP2;P2;SDS_P1;SDS_P2;PMS_P1;PMS_P2;Temp;Humidity;BMP_temperature;BMP_pressure;BME280_temperature;BME280_humidity;BME280_pressure;Samples;Min_cycle;Max_cycle;Signal;HPM_P1;HPM_P2
2022/12/09 00:00:14;;;;;;;20.73;12.70;;;1.40;99.90;;;;;;5051764;28;20205;-68
2022/12/09 00:02:40;;;;;;;22.27;12.73;;;1.40;99.90;;;;;;5056443;28;20214;-69
2022/12/09 00:05:06;;;;;;;20.00;12.17;;;1.40;99.90;;;;;;5057084;28;20685;-68
2022/12/09 00:07:34;;;;;;;25.00;12.80;;;1.40;99.90;;;;;;5049421;28;20219;-69
2022/12/09 00:10:00;;;;;;;24.30;13.73;;;1.40;99.90;;;;;;5050055;28;20321;-69
2022/12/09 00:12:25;;;;;;;21.23;12.47;;;1.40;99.90;;;;;;5055950;28;20214;-69
2022/12/09 00:14:51;;;;;;;19.57;11.60;;;1.40;99.90;;;;;;5050733;28;20194;-66
2022/12/09 00:17:16;;;;;;;21.80;12.87;;;1.30;99.90;;;;;;5054016;28;20294;-70
2022/12/09 00:19:42;;;;;;;22.63;13.40;;;1.30;99.90;;;;;;5051028;28;20218;-69
2022/12/09 00:22:08;;;;;;;23.13;13.00;;;1.30;99.90;;;;;;5052032;28;20208;-69
2022/12/09 00:24:33;;;;;;;24.17;14.10;;;1.30;99.90;;;;;;5053822;28;20211;-68
2022/12/09 00:26:59;;;;;;;23.80;13.93;;;1.20;99.90;;;;;;5049352;28;20216;-68
2022/12/09 00:29:24;;;;;;;21.80;13.00;;;1.20;99.90;;;;;;5043924;28;20843;-69
2022/12/09 00:31:50;;;;;;;26.50;14.70;;;1.20;99.90;;;;;;5055506;28;20243;-68
2022/12/09 00:34:16;;;;;;;27.47;15.23;;;1.10;99.90;;;;;;5051193;28;20211;-69
2022/12/09 00:36:41;;;;;;;29.53;15.47;;;1.10;99.90;;;;;;5049023;28;20708;-69
2022/12/09 00:39:08;;;;;;;27.10;15.03;;;1.10;99.90;;;;;;5055916;28;20208;-68
2022/12/09 00:41:34;;;;;;;28.70;16.30;;;1.10;99.90;;;;;;5047403;28;20296;-69
2022/12/09 00:43:59;;;;;;;29.43;15.77;;;1.10;99.90;;;;;;5049455;28;20302;-68
2022/12/09 00:46:25;;;;;;;26.93;14.57;;;1.00;99.90;;;;;;5053169;28;20767;-70
2022/12/09 00:48:51;;;;;;;29.10;16.00;;;1.00;99.90;;;;;;5044055;28;20216;-67
2022/12/09 00:51:20;;;;;;;31.83;16.37;;;1.00;99.90;;;;;;5052558;28;20262;-69
2022/12/09 00:53:47;;;;;;;27.20;16.17;;;1.00;99.90;;;;;;5050501;28;20248;-68
2022/12/09 00:56:13;;;;;;;32.33;16.93;;;1.00;99.90;;;;;;5051226;28;20245;-69
2022/12/09 00:58:39;;;;;;;29.87;16.13;;;1.00;99.90;;;;;;5057202;28;20210;-69
2022/12/09 01:01:04;;;;;;;36.53;19.60;;;1.00;99.90;;;;;;5048680;28;20225;-69
2022/12/09 01:03:30;;;;;;;30.53;17.70;;;0.90;99.90;;;;;;5048918;28;20285;-69
2022/12/09 01:05:56;;;;;;;33.07;17.83;;;0.90;99.90;;;;;;5055231;28;20170;-68
2022/12/09 01:08:22;;;;;;;32.73;18.10;;;1.00;99.90;;;;;;5054004;28;20773;-70
2022/12/09 01:10:47;;;;;;;29.90;16.80;;;1.00;99.90;;;;;;5046983;28;20743;-69
2022/12/09 01:13:14;;;;;;;30.13;17.33;;;1.00;99.90;;;;;;5054281;28;20208;-68
2022/12/09 01:15:40;;;;;;;33.23;17.07;;;1.00;99.90;;;;;;5045761;28;20734;-67
2022/12/09 01:18:06;;;;;;;31.90;16.83;;;1.00;99.90;;;;;;5051212;28;20191;-69
2022/12/09 01:20:33;;;;;;;30.70;17.07;;;1.00;99.90;;;;;;5053837;28;20226;-69
2022/12/09 01:22:59;;;;;;;34.77;17.83;;;0.90;99.90;;;;;;5044358;28;20223;-69
2022/12/09 01:25:25;;;;;;;32.60;16.73;;;0.90;99.90;;;;;;5055656;28;20204;-67
2022/12/09 01:27:50;;;;;;;33.33;18.07;;;0.90;99.90;;;;;;5050987;28;20303;-68
2022/12/09 01:30:16;;;;;;;32.30;17.43;;;0.90;99.90;;;;;;5047733;28;20213;-69
2022/12/09 01:32:42;;;;;;;36.80;18.40;;;0.90;99.90;;;;;;5054892;28;20183;-69
2022/12/09 01:35:09;;;;;;;33.00;17.83;;;0.90;99.90;;;;;;5052828;28;20311;-69
2022/12/09 01:37:35;;;;;;;32.73;18.27;;;0.90;99.90;;;;;;5047559;28;20825;-67
2022/12/09 01:40:04;;;;;;;32.33;17.57;;;0.90;99.90;;;;;;5049334;28;20224;-68
2022/12/09 01:42:32;;;;;;;32.47;17.33;;;0.90;99.90;;;;;;5046545;28;20658;-68
2022/12/09 01:45:23;;;;;;;31.70;16.73;;;0.90;99.90;;;;;;5048021;28;20261;-69
2022/12/09 01:48:26;;;;;;;34.27;18.17;;;0.90;99.90;;;;;;5048208;28;20686;-69
2022/12/09 01:50:58;;;;;;;31.10;17.70;;;0.90;99.90;;;;;;5043796;28;20217;-67
2022/12/09 01:53:29;;;;;;;32.17;18.10;;;0.90;99.90;;;;;;5056252;28;20205;-69
2022/12/09 01:55:59;;;;;;;30.60;17.27;;;0.90;99.90;;;;;;5048118;28;20297;-68
2022/12/09 01:58:25;;;;;;;32.07;16.93;;;0.90;99.90;;;;;;5053006;28;20325;-68
2022/12/09 02:00:51;;;;;;;31.77;16.70;;;0.90;99.90;;;;;;5049955;28;20215;-68
2022/12/09 02:03:16;;;;;;;30.00;17.30;;;1.00;99.90;;;;;;5046447;28;20182;-69
2022/12/09 02:05:43;;;;;;;33.00;17.20;;;1.00;99.90;;;;;;5053057;28;20634;-68
2022/12/09 02:08:15;;;;;;;36.07;18.03;;;1.00;99.90;;;;;;5053937;28;20212;-69
2022/12/09 02:10:51;;;;;;;32.57;16.53;;;1.10;99.90;;;;;;5046813;28;20262;-68
2022/12/09 02:13:33;;;;;;;30.13;16.20;;;1.10;99.90;;;;;;5056563;28;20202;-68
2022/12/09 02:16:04;;;;;;;30.87;15.40;;;1.20;99.90;;;;;;5050308;28;20206;-69
2022/12/09 02:18:49;;;;;;;31.70;16.73;;;1.10;99.90;;;;;;5056901;28;20247;-68
2022/12/09 02:21:22;;;;;;;27.20;16.07;;;1.10;99.90;;;;;;5067459;28;20175;-68
2022/12/09 02:23:57;;;;;;;27.10;15.33;;;1.10;99.90;;;;;;5042540;28;20241;-70
2022/12/09 02:26:43;;;;;;;28.13;15.07;;;1.20;99.90;;;;;;5048936;28;20217;-67
2022/12/09 02:29:24;;;;;;;29.93;15.53;;;1.20;99.90;;;;;;5064176;28;20218;-68
2022/12/09 02:32:13;;;;;;;28.63;15.63;;;1.20;99.90;;;;;;5043385;28;20292;-68
2022/12/09 02:34:51;;;;;;;27.33;14.87;;;1.20;99.90;;;;;;5052529;28;20206;-69
2022/12/09 02:37:26;;;;;;;28.20;15.57;;;1.20;99.90;;;;;;5050809;28;20321;-69
2022/12/09 02:40:00;;;;;;;26.77;14.63;;;1.30;99.90;;;;;;5061054;28;20220;-69
2022/12/09 02:42:30;;;;;;;25.17;14.30;;;1.30;99.90;;;;;;5045443;28;20991;-70
2022/12/09 02:44:59;;;;;;;24.77;13.63;;;1.30;99.90;;;;;;5048729;28;20185;-69
2022/12/09 02:47:28;;;;;;;25.83;13.67;;;1.40;99.90;;;;;;5052459;28;20203;-68
2022/12/09 02:50:00;;;;;;;26.10;14.07;;;1.40;99.90;;;;;;5047385;28;20334;-67
2022/12/09 02:52:28;;;;;;;23.73;13.60;;;1.30;99.90;;;;;;5057557;28;20301;-68
2022/12/09 02:54:54;;;;;;;24.80;12.90;;;1.30;99.90;;;;;;5048756;28;20234;-66
2022/12/09 02:57:25;;;;;;;24.43;13.67;;;1.30;99.90;;;;;;5050796;28;20282;-67
2022/12/09 02:59:51;;;;;;;22.87;13.00;;;1.30;99.90;;;;;;5049544;28;20200;-66
2022/12/09 03:02:25;;;;;;;22.83;13.77;;;1.30;99.90;;;;;;5064510;28;20199;-67
2022/12/09 03:05:22;;;;;;;18.57;11.77;;;1.30;99.90;;;;;;5039761;28;20305;-67
2022/12/09 03:07:47;;;;;;;20.30;12.10;;;1.30;99.90;;;;;;5049397;28;20211;-66
2022/12/09 03:10:22;;;;;;;22.53;12.30;;;1.30;99.90;;;;;;5050915;28;20201;-67
2022/12/09 03:12:55;;;;;;;18.30;11.80;;;1.30;99.90;;;;;;5055066;28;20297;-68
2022/12/09 03:15:25;;;;;;;22.70;12.50;;;1.30;99.90;;;;;;5051435;28;20170;-69
2022/12/09 03:17:52;;;;;;;21.27;12.03;;;1.40;99.90;;;;;;5050274;28;20230;-68
2022/12/09 03:20:27;;;;;;;21.17;12.33;;;1.40;99.90;;;;;;5049920;28;20206;-69
2022/12/09 03:22:57;;;;;;;20.70;12.50;;;1.40;99.90;;;;;;5046839;28;20586;-68
2022/12/09 03:25:30;;;;;;;22.70;12.70;;;1.40;99.90;;;;;;5049723;28;20213;-69
2022/12/09 03:28:03;;;;;;;20.30;12.40;;;1.50;99.90;;;;;;5054270;28;20215;-69
2022/12/09 03:30:32;;;;;;;23.43;12.83;;;1.50;99.90;;;;;;5052507;28;20561;-68
2022/12/09 03:32:57;;;;;;;23.00;11.80;;;1.50;99.90;;;;;;5045613;28;20267;-68
2022/12/09 03:35:31;;;;;;;23.50;14.07;;;1.50;99.90;;;;;;5058825;28;20298;-69
2022/12/09 03:38:01;;;;;;;22.90;12.27;;;1.50;99.90;;;;;;5044256;28;20278;-69
2022/12/09 03:40:29;;;;;;;25.47;14.20;;;1.50;99.90;;;;;;5066701;28;20216;-69
2022/12/09 03:42:57;;;;;;;22.37;13.17;;;1.50;99.90;;;;;;5059428;28;20613;-67
2022/12/09 03:45:23;;;;;;;23.57;13.50;;;1.40;99.90;;;;;;5048511;28;20258;-68
2022/12/09 03:47:50;;;;;;;22.40;13.00;;;1.40;99.90;;;;;;5053577;28;20289;-69
2022/12/09 03:50:16;;;;;;;24.53;14.27;;;1.40;99.90;;;;;;5048972;28;20203;-69
2022/12/09 03:52:55;;;;;;;25.90;13.30;;;1.30;99.90;;;;;;5049246;28;20204;-69
2022/12/09 03:55:24;;;;;;;22.47;12.57;;;1.40;99.90;;;;;;5049727;28;20197;-69
2022/12/09 03:57:54;;;;;;;22.40;13.23;;;1.30;99.90;;;;;;5044215;28;20212;-67
2022/12/09 04:00:20;;;;;;;23.87;12.87;;;1.30;99.90;;;;;;5049922;28;20271;-69
2022/12/09 04:02:45;;;;;;;21.50;12.47;;;1.30;99.90;;;;;;5049954;28;20602;-67
2022/12/09 04:05:11;;;;;;;21.03;12.50;;;1.30;99.90;;;;;;5045757;28;20511;-68
2022/12/09 04:07:37;;;;;;;21.53;12.77;;;1.30;99.90;;;;;;5053718;28;20199;-68
2022/12/09 04:10:03;;;;;;;19.53;12.17;;;1.30;99.90;;;;;;5052251;28;20208;-68
2022/12/09 04:12:29;;;;;;;22.80;13.13;;;1.30;99.90;;;;;;5049024;28;20209;-69
2022/12/09 04:14:54;;;;;;;22.47;13.23;;;1.40;99.90;;;;;;5054514;28;20538;-68
2022/12/09 04:17:20;;;;;;;21.70;13.13;;;1.40;99.90;;;;;;5047819;28;20718;-70
2022/12/09 04:19:46;;;;;;;24.33;13.83;;;1.40;99.90;;;;;;5047907;28;20703;-69
2022/12/09 04:22:11;;;;;;;20.13;12.30;;;1.30;99.90;;;;;;5051876;28;20603;-70
2022/12/09 04:24:37;;;;;;;23.70;13.43;;;1.30;99.90;;;;;;5049172;28;20207;-70
2022/12/09 04:27:02;;;;;;;19.63;12.33;;;1.30;99.90;;;;;;5074295;23;20313;-70
2022/12/09 04:29:28;;;;;;;22.57;12.27;;;1.30;99.90;;;;;;5034239;28;20680;-70
2022/12/09 04:31:54;;;;;;;24.47;14.33;;;1.20;99.90;;;;;;5025848;28;20211;-70
2022/12/09 04:34:19;;;;;;;21.83;12.13;;;1.20;99.90;;;;;;5030522;28;20229;-70
2022/12/09 04:36:46;;;;;;;25.97;12.80;;;1.20;99.90;;;;;;5027144;28;20798;-70
2022/12/09 04:39:12;;;;;;;22.50;12.27;;;1.20;99.90;;;;;;5023736;28;20224;-70
2022/12/09 04:41:37;;;;;;;22.93;12.83;;;1.20;99.90;;;;;;5030101;28;20551;-70
2022/12/09 04:44:04;;;;;;;22.13;12.40;;;1.30;99.90;;;;;;5024211;28;20200;-70
2022/12/09 04:46:29;;;;;;;24.80;13.67;;;1.30;99.90;;;;;;5024751;28;20549;-70
2022/12/09 04:48:55;;;;;;;25.17;14.17;;;1.40;99.90;;;;;;5027103;28;20223;-70
2022/12/09 04:51:20;;;;;;;23.03;13.33;;;1.40;99.90;;;;;;5030156;28;20555;-70
2022/12/09 04:53:46;;;;;;;23.87;13.47;;;1.40;99.90;;;;;;5024456;28;20180;-69
2022/12/09 04:56:17;;;;;;;24.13;13.63;;;1.30;99.90;;;;;;5026944;28;20216;-70
2022/12/09 04:58:44;;;;;;;21.60;13.20;;;1.30;99.90;;;;;;5022767;28;20782;-70
2022/12/09 05:01:12;;;;;;;28.80;16.92;;;1.30;99.90;;;;;;5027214;28;21019;-70
2022/12/09 05:03:38;;;;;;;26.87;15.07;;;1.30;99.90;;;;;;5023532;28;20222;-70
2022/12/09 05:06:06;;;;;;;23.10;13.93;;;1.30;99.90;;;;;;5026209;28;20371;-70
2022/12/09 05:08:32;;;;;;;24.13;13.93;;;1.30;99.90;;;;;;5029337;28;20242;-70
2022/12/09 05:10:58;;;;;;;25.00;13.87;;;1.30;99.90;;;;;;5026728;28;20229;-70
2022/12/09 05:13:26;;;;;;;25.60;14.33;;;1.20;99.90;;;;;;5024116;28;20295;-70
2022/12/09 05:15:53;;;;;;;28.27;14.90;;;1.20;99.90;;;;;;5027280;28;20319;-70
2022/12/09 05:18:19;;;;;;;23.67;12.90;;;1.20;99.90;;;;;;5024050;28;20213;-71
2022/12/09 05:20:44;;;;;;;25.43;13.67;;;1.20;99.90;;;;;;5029983;28;20213;-70
2022/12/09 05:23:10;;;;;;;29.07;15.47;;;1.30;99.90;;;;;;5029021;28;20208;-70
2022/12/09 05:25:36;;;;;;;24.37;13.57;;;1.20;99.90;;;;;;5023613;28;20833;-70
2022/12/09 05:28:01;;;;;;;27.17;14.47;;;1.20;99.90;;;;;;5028446;28;20227;-70
2022/12/09 05:30:27;;;;;;;26.07;14.30;;;1.10;99.90;;;;;;5026542;28;20272;-70
2022/12/09 05:32:52;;;;;;;27.63;15.40;;;1.10;99.90;;;;;;5021498;28;20192;-70
2022/12/09 05:35:18;;;;;;;27.00;13.60;;;1.10;99.90;;;;;;5028963;28;20211;-70
2022/12/09 05:37:43;;;;;;;28.13;14.60;;;1.10;99.90;;;;;;5024724;28;20262;-70
2022/12/09 05:40:10;;;;;;;29.60;15.20;;;1.10;99.90;;;;;;5021718;28;20237;-70
2022/12/09 05:42:36;;;;;;;27.83;14.10;;;1.10;99.90;;;;;;5029652;28;20933;-70
2022/12/09 05:45:02;;;;;;;25.77;14.27;;;1.10;99.90;;;;;;5026598;28;20182;-70
2022/12/09 05:47:28;;;;;;;30.47;16.33;;;1.10;99.90;;;;;;5023527;28;20220;-70
2022/12/09 05:49:54;;;;;;;28.20;15.37;;;1.10;99.90;;;;;;5025060;28;20207;-68
2022/12/09 05:52:19;;;;;;;28.50;15.40;;;1.10;99.90;;;;;;5024482;28;20204;-70
2022/12/09 05:54:45;;;;;;;27.17;15.47;;;1.20;99.90;;;;;;5026185;28;20772;-70
2022/12/09 05:57:10;;;;;;;28.70;14.70;;;1.20;99.90;;;;;;5028814;28;20223;-70
2022/12/09 05:59:36;;;;;;;30.67;15.87;;;1.20;99.90;;;;;;5022115;28;20290;-70
2022/12/09 06:02:01;;;;;;;25.33;15.07;;;1.20;99.90;;;;;;5026512;28;20591;-71
2022/12/09 06:04:27;;;;;;;25.73;14.57;;;1.20;99.90;;;;;;5026332;28;20692;-70
2022/12/09 06:06:53;;;;;;;23.77;13.53;;;1.20;99.90;;;;;;5019965;28;20215;-69
2022/12/09 06:09:18;;;;;;;25.33;13.67;;;1.20;99.90;;;;;;5027270;28;20657;-70
2022/12/09 06:11:44;;;;;;;24.40;13.40;;;1.30;99.90;;;;;;5027889;28;20685;-70
2022/12/09 06:14:10;;;;;;;25.47;13.67;;;1.30;99.90;;;;;;5025076;28;20215;-70
2022/12/09 06:16:36;;;;;;;27.00;13.00;;;1.30;99.90;;;;;;5027438;28;20678;-70
2022/12/09 06:19:02;;;;;;;31.10;16.73;;;1.30;99.90;;;;;;5021785;28;20232;-69
2022/12/09 06:21:28;;;;;;;32.20;16.23;;;1.40;99.90;;;;;;5025283;28;22236;-70
2022/12/09 06:23:54;;;;;;;37.57;18.23;;;1.40;99.90;;;;;;5025264;28;20167;-70
2022/12/09 06:26:26;;;;;;;37.57;18.37;;;1.40;99.90;;;;;;5023974;28;20203;-70
2022/12/09 06:28:52;;;;;;;39.70;17.00;;;1.50;99.90;;;;;;5024650;28;20230;-70
2022/12/09 06:31:19;;;;;;;39.40;18.53;;;1.50;99.90;;;;;;5022942;28;20749;-70
2022/12/09 06:33:44;;;;;;;38.97;18.33;;;1.50;99.90;;;;;;5020480;28;20215;-70
2022/12/09 06:36:10;;;;;;;37.97;18.40;;;1.40;99.90;;;;;;5026759;28;20524;-70
2022/12/09 06:38:36;;;;;;;43.23;19.53;;;1.50;99.90;;;;;;5024845;28;20625;-70
2022/12/09 06:41:09;;;;;;;43.60;19.53;;;1.50;99.90;;;;;;5022702;28;20302;-70
2022/12/09 06:43:36;;;;;;;40.07;18.77;;;1.50;99.90;;;;;;5027517;28;20652;-70
2022/12/09 06:46:02;;;;;;;45.63;19.23;;;1.50;99.90;;;;;;5023809;28;20221;-70
2022/12/09 06:48:28;;;;;;;42.47;19.13;;;1.50;99.90;;;;;;5028604;28;20210;-70
2022/12/09 06:50:53;;;;;;;47.60;19.30;;;1.50;99.90;;;;;;5024207;28;20588;-70
2022/12/09 06:53:19;;;;;;;45.27;20.37;;;1.50;99.90;;;;;;5023475;28;20582;-70
2022/12/09 06:55:44;;;;;;;47.30;19.17;;;1.50;99.90;;;;;;5025030;28;20597;-70
2022/12/09 06:58:10;;;;;;;41.13;18.73;;;1.50;99.90;;;;;;5024246;28;20205;-70
2022/12/09 07:00:36;;;;;;;43.40;17.83;;;1.40;99.90;;;;;;5020422;28;20231;-69
2022/12/09 07:03:01;;;;;;;44.10;18.00;;;1.40;99.90;;;;;;5026102;28;20183;-71
2022/12/09 07:05:27;;;;;;;41.30;18.67;;;1.50;99.90;;;;;;5028401;28;20211;-69
2022/12/09 07:07:53;;;;;;;45.00;19.17;;;1.50;99.90;;;;;;5020641;28;20516;-69
2022/12/09 07:10:19;;;;;;;47.93;18.73;;;1.50;99.90;;;;;;5028011;28;20233;-69
2022/12/09 07:12:45;;;;;;;45.57;18.57;;;1.50;99.90;;;;;;5022590;28;20591;-69
2022/12/09 07:15:11;;;;;;;44.87;19.70;;;1.50;99.90;;;;;;5023866;28;20169;-72
2022/12/09 07:17:36;;;;;;;41.17;18.37;;;1.50;99.90;;;;;;5026802;28;20194;-69
2022/12/09 07:20:03;;;;;;;43.50;19.00;;;1.50;99.90;;;;;;5020339;28;20221;-71
2022/12/09 07:22:28;;;;;;;44.53;18.77;;;1.50;99.90;;;;;;5024856;28;20201;-72
2022/12/09 07:24:54;;;;;;;44.50;19.47;;;1.50;99.90;;;;;;5025958;28;20280;-70
2022/12/09 07:27:20;;;;;;;37.37;17.57;;;1.50;99.90;;;;;;5023068;28;20287;-70
2022/12/09 07:29:45;;;;;;;39.87;17.73;;;1.50;99.90;;;;;;5023997;28;20592;-69
2022/12/09 07:32:11;;;;;;;38.97;17.67;;;1.60;99.90;;;;;;5027538;28;20216;-70
2022/12/09 07:34:37;;;;;;;39.57;17.37;;;1.60;99.90;;;;;;5028484;28;20272;-70
2022/12/09 07:37:03;;;;;;;41.17;17.57;;;1.50;99.90;;;;;;5026212;28;20720;-70
2022/12/09 07:39:29;;;;;;;35.93;16.90;;;1.50;99.90;;;;;;5023274;28;20231;-68
2022/12/09 07:41:56;;;;;;;40.33;17.63;;;1.50;99.90;;;;;;5022296;28;20212;-69
2022/12/09 07:44:23;;;;;;;33.37;16.40;;;1.50;99.90;;;;;;5026502;28;20205;-70
2022/12/09 07:46:49;;;;;;;34.33;16.43;;;1.50;99.90;;;;;;5023301;28;20212;-70
2022/12/09 07:49:15;;;;;;;34.23;16.87;;;1.50;99.90;;;;;;5023992;28;20703;-70
2022/12/09 07:51:41;;;;;;;33.27;16.30;;;1.50;99.90;;;;;;5025075;28;20295;-70
2022/12/09 07:54:11;;;;;;;33.73;17.23;;;1.50;99.90;;;;;;5021703;28;20189;-70
2022/12/09 07:56:36;;;;;;;30.70;16.77;;;1.50;99.90;;;;;;5028157;28;20579;-68
2022/12/09 07:59:05;;;;;;;36.70;16.73;;;1.50;99.90;;;;;;5024553;28;20273;-71
2022/12/09 08:01:31;;;;;;;35.50;16.87;;;1.50;99.90;;;;;;5023692;28;20203;-70
2022/12/09 08:03:57;;;;;;;34.83;17.37;;;1.50;99.90;;;;;;5029360;28;20203;-70
2022/12/09 08:06:25;;;;;;;33.27;16.20;;;1.60;99.90;;;;;;5027738;28;20187;-70
2022/12/09 08:08:51;;;;;;;35.23;16.43;;;1.60;99.90;;;;;;5025482;28;20659;-70
2022/12/09 08:11:21;;;;;;;34.60;16.27;;;1.60;99.90;;;;;;5028468;28;20349;-70
2022/12/09 08:13:47;;;;;;;31.70;15.73;;;1.70;99.90;;;;;;5024803;28;20714;-70
2022/12/09 08:16:15;;;;;;;31.30;16.73;;;1.70;99.90;;;;;;5030915;28;20594;-70
2022/12/09 08:18:41;;;;;;;29.97;16.37;;;1.70;99.90;;;;;;5025375;28;20208;-70
2022/12/09 08:21:12;;;;;;;35.13;16.60;;;1.70;99.90;;;;;;5024049;28;20594;-70
2022/12/09 08:23:38;;;;;;;33.10;16.27;;;1.70;99.90;;;;;;5031651;28;20214;-70
2022/12/09 08:26:05;;;;;;;36.17;17.67;;;1.70;99.90;;;;;;5026132;28;20231;-69
2022/12/09 08:28:30;;;;;;;34.17;16.40;;;1.80;99.90;;;;;;5031151;28;20307;-70
2022/12/09 08:30:56;;;;;;;39.17;18.10;;;1.70;99.90;;;;;;5028034;28;20291;-69
2022/12/09 08:33:22;;;;;;;33.20;16.93;;;1.80;99.90;;;;;;5027531;28;20563;-70
2022/12/09 08:35:48;;;;;;;38.17;16.97;;;1.80;99.90;;;;;;5031345;28;20183;-70
2022/12/09 08:38:14;;;;;;;34.27;17.27;;;1.90;99.90;;;;;;5028482;28;20216;-69
2022/12/09 08:40:39;;;;;;;33.80;17.27;;;1.90;99.90;;;;;;5024259;28;20223;-70
2022/12/09 08:43:09;;;;;;;36.20;17.43;;;1.80;99.90;;;;;;5025802;28;20562;-69
2022/12/09 08:45:36;;;;;;;35.60;17.57;;;1.80;99.90;;;;;;5030563;28;20291;-70
2022/12/09 08:48:02;;;;;;;34.97;17.20;;;1.80;99.90;;;;;;5023635;28;20292;-70
2022/12/09 08:50:27;;;;;;;34.00;17.77;;;1.70;99.90;;;;;;5026447;28;20290;-70
2022/12/09 08:52:53;;;;;;;33.83;17.03;;;1.70;99.90;;;;;;5025583;28;20201;-69
2022/12/09 08:55:19;;;;;;;33.87;16.47;;;1.80;99.90;;;;;;5025010;28;20643;-70
2022/12/09 08:57:44;;;;;;;35.83;17.10;;;1.90;99.90;;;;;;5029389;28;20224;-68
2022/12/09 09:00:10;;;;;;;35.90;17.20;;;1.90;99.90;;;;;;5024897;28;20547;-70
2022/12/09 09:02:36;;;;;;;31.33;16.20;;;1.80;99.90;;;;;;5025147;28;20545;-69
2022/12/09 09:05:01;;;;;;;31.67;15.83;;;1.80;99.90;;;;;;5028070;28;20196;-69
2022/12/09 09:07:29;;;;;;;34.77;17.13;;;1.80;99.90;;;;;;5026270;28;20257;-69
2022/12/09 09:09:54;;;;;;;34.17;17.13;;;1.70;99.90;;;;;;5022707;28;20216;-70
2022/12/09 09:12:20;;;;;;;32.23;16.67;;;1.70;99.90;;;;;;5028124;28;20533;-69
2022/12/09 09:14:45;;;;;;;33.43;17.27;;;1.60;99.90;;;;;;5026401;28;20171;-69
2022/12/09 09:17:11;;;;;;;30.33;16.03;;;1.70;99.90;;;;;;5026562;28;20261;-69
2022/12/09 09:19:36;;;;;;;36.20;17.87;;;1.80;99.90;;;;;;5026553;28;20208;-69
2022/12/09 09:22:02;;;;;;;32.83;16.63;;;1.80;99.90;;;;;;5022464;28;20216;-68
2022/12/09 09:24:28;;;;;;;35.10;17.00;;;1.70;99.90;;;;;;5029867;28;20215;-70
2022/12/09 09:26:53;;;;;;;35.70;17.53;;;1.70;99.90;;;;;;5024710;28;20192;-69
2022/12/09 09:29:21;;;;;;;33.13;16.57;;;1.60;99.90;;;;;;5023412;28;20208;-70
2022/12/09 09:31:52;;;;;;;33.13;16.97;;;1.40;99.90;;;;;;5028348;28;20208;-70
2022/12/09 09:34:19;;;;;;;34.87;16.23;;;1.40;99.90;;;;;;5024141;28;20220;-70
2022/12/09 09:36:45;;;;;;;34.03;16.87;;;1.50;99.90;;;;;;5027206;28;20235;-69
2022/12/09 09:39:11;;;;;;;37.77;16.50;;;1.60;99.90;;;;;;5026266;28;20201;-68
2022/12/09 09:41:56;;;;;;;34.53;17.47;;;1.60;99.90;;;;;;5023746;28;20180;-70
2022/12/09 09:44:46;;;;;;;29.10;14.97;;;1.60;99.90;;;;;;5026332;28;20204;-70
2022/12/09 09:47:24;;;;;;;30.50;15.77;;;1.40;99.90;;;;;;5025441;28;20223;-69
2022/12/09 09:50:06;;;;;;;31.20;15.97;;;1.50;99.90;;;;;;5022702;28;20315;-70
2022/12/09 09:52:34;;;;;;;31.40;15.63;;;1.60;99.90;;;;;;5026855;28;20208;-70
2022/12/09 09:55:12;;;;;;;31.73;14.93;;;1.70;99.90;;;;;;5022434;28;20216;-69
2022/12/09 09:58:04;;;;;;;31.03;15.10;;;1.80;99.90;;;;;;5029141;28;20564;-70
2022/12/09 10:00:41;;;;;;;29.70;15.33;;;1.90;99.90;;;;;;5016471;28;20625;-70
2022/12/09 10:03:30;;;;;;;31.93;15.73;;;1.70;99.90;;;;;;5022372;28;20188;-69
2022/12/09 10:06:00;;;;;;;30.93;15.50;;;1.70;99.90;;;;;;5025590;28;20200;-69
2022/12/09 10:08:34;;;;;;;30.63;15.30;;;1.60;99.90;;;;;;5024574;28;20219;-70
2022/12/09 10:11:05;;;;;;;30.30;15.07;;;1.60;99.90;;;;;;5021132;28;20261;-69
2022/12/09 10:14:08;;;;;;;28.20;14.17;;;1.60;99.90;;;;;;5026943;28;20208;-69
2022/12/09 10:17:14;;;;;;;32.57;15.87;;;1.60;99.90;;;;;;5028700;28;20779;-70
2022/12/09 10:19:47;;;;;;;31.30;15.30;;;1.60;99.90;;;;;;5027140;28;20204;-69
2022/12/09 10:22:16;;;;;;;33.03;16.57;;;1.70;99.90;;;;;;5022888;28;20208;-69
2022/12/09 10:24:48;;;;;;;31.27;15.27;;;1.70;99.90;;;;;;5025790;28;20295;-70
2022/12/09 10:27:27;;;;;;;30.43;15.40;;;1.70;99.90;;;;;;5025286;28;20266;-70
2022/12/09 10:29:54;;;;;;;30.90;15.63;;;1.80;99.90;;;;;;5039284;22;20313;-67
2022/12/09 10:32:32;;;;;;;32.90;16.20;;;1.80;99.90;;;;;;5030077;28;20219;-69
2022/12/09 10:34:58;;;;;;;33.37;16.80;;;1.80;99.90;;;;;;5023989;28;20215;-70
2022/12/09 10:37:25;;;;;;;33.47;14.80;;;1.80;99.90;;;;;;5022494;28;20201;-70
2022/12/09 10:40:14;;;;;;;29.80;16.40;;;1.80;99.90;;;;;;5024478;28;20217;-68
2022/12/09 10:45:33;;;;;;;34.13;16.67;;;1.80;99.90;;;;;;5022506;28;20223;-69
2022/12/09 10:47:59;;;;;;;35.13;17.13;;;1.80;99.90;;;;;;5021131;28;20176;-69
2022/12/09 10:50:34;;;;;;;35.27;17.13;;;1.70;99.90;;;;;;5017449;28;20213;-69
2022/12/09 10:53:10;;;;;;;31.87;16.23;;;1.60;99.90;;;;;;5019888;28;20691;-69
2022/12/09 10:55:43;;;;;;;38.43;18.43;;;1.50;99.90;;;;;;5025049;28;20208;-69
2022/12/09 10:58:27;;;;;;;36.90;17.67;;;1.50;99.90;;;;;;5021751;28;20219;-69
2022/12/09 11:01:09;;;;;;;32.70;16.33;;;1.40;99.90;;;;;;5018085;28;20219;-67
2022/12/09 11:03:55;;;;;;;36.07;17.40;;;1.50;99.90;;;;;;5020901;28;20592;-69
2022/12/09 11:06:25;;;;;;;31.57;16.83;;;1.50;99.90;;;;;;5021878;28;20192;-69
2022/12/09 11:08:54;;;;;;;32.30;16.80;;;1.60;99.90;;;;;;5019657;28;20211;-68
2022/12/09 11:11:36;;;;;;;32.07;16.83;;;1.60;99.90;;;;;;5017901;28;20244;-69
2022/12/09 11:14:02;;;;;;;37.07;17.83;;;1.60;99.90;;;;;;5018273;28;20208;-68
2022/12/09 11:16:27;;;;;;;32.50;16.53;;;1.60;99.90;;;;;;5025696;28;20215;-69
2022/12/09 11:18:54;;;;;;;37.10;17.90;;;1.50;99.90;;;;;;5017439;28;20615;-66
2022/12/09 11:21:49;;;;;;;32.87;16.83;;;1.50;99.90;;;;;;5019148;28;20251;-69
2022/12/09 11:24:23;;;;;;;32.90;16.90;;;1.40;99.90;;;;;;5002203;28;20181;-69
2022/12/09 11:26:48;;;;;;;32.47;15.53;;;1.50;99.90;;;;;;5018989;28;20176;-69
2022/12/09 11:29:17;;;;;;;32.40;16.97;;;1.50;99.90;;;;;;5023953;28;20656;-68
2022/12/09 11:31:44;;;;;;;30.87;16.50;;;1.60;99.90;;;;;;5018859;28;20687;-69
2022/12/09 11:34:22;;;;;;;27.90;14.10;;;1.70;99.90;;;;;;5021652;28;20209;-69
2022/12/09 11:36:53;;;;;;;30.10;15.03;;;1.50;99.90;;;;;;5027541;28;20213;-69
2022/12/09 11:39:29;;;;;;;28.73;15.90;;;1.50;99.90;;;;;;5021840;28;20201;-68
2022/12/09 11:42:15;;;;;;;26.57;14.73;;;1.40;99.90;;;;;;5023074;28;20205;-68
2022/12/09 11:44:43;;;;;;;28.50;14.93;;;1.40;99.90;;;;;;5025281;28;20211;-69
2022/12/09 11:47:19;;;;;;;33.63;16.67;;;1.50;99.90;;;;;;5019267;28;20205;-69
2022/12/09 11:49:50;;;;;;;43.30;19.10;;;1.50;99.90;;;;;;5022437;28;20241;-69
2022/12/09 11:52:16;;;;;;;32.23;16.87;;;1.40;99.90;;;;;;5025362;28;20288;-69
2022/12/09 11:54:48;;;;;;;38.53;19.10;;;1.50;99.90;;;;;;5026784;28;20220;-69
2022/12/09 11:57:25;;;;;;;32.57;17.53;;;1.40;99.90;;;;;;5023785;28;20195;-69
2022/12/09 11:59:58;;;;;;;37.17;18.70;;;1.40;99.90;;;;;;5021110;28;20211;-69
2022/12/09 12:02:33;;;;;;;39.40;19.43;;;1.50;99.90;;;;;;5027839;28;20291;-69
2022/12/09 12:05:16;;;;;;;37.13;19.03;;;1.50;99.90;;;;;;5020764;28;20680;-69
2022/12/09 12:08:13;;;;;;;39.13;19.70;;;1.50;99.90;;;;;;5022021;28;20212;-69
2022/12/09 12:10:53;;;;;;;36.20;17.83;;;1.60;99.90;;;;;;5023017;28;20226;-69
2022/12/09 12:13:35;;;;;;;38.50;18.77;;;1.50;99.90;;;;;;5022870;28;20714;-69
2022/12/09 12:16:24;;;;;;;38.03;19.47;;;1.40;99.90;;;;;;5023497;28;20213;-68
2022/12/09 12:19:16;;;;;;;36.40;18.93;;;1.40;99.90;;;;;;5021531;28;20709;-69
2022/12/09 12:22:26;;;;;;;39.27;17.37;;;1.40;99.90;;;;;;5013697;28;20212;-69
2022/12/09 12:25:15;;;;;;;38.97;19.03;;;1.50;99.90;;;;;;5024187;28;20216;-65
2022/12/09 12:28:09;;;;;;;41.17;19.13;;;1.60;99.90;;;;;;5025473;28;20216;-69
2022/12/09 12:31:01;;;;;;;41.97;20.20;;;1.60;99.90;;;;;;5022106;28;20227;-69
2022/12/09 12:33:39;;;;;;;35.53;18.60;;;1.60;99.90;;;;;;5022554;28;20182;-69
2022/12/09 12:36:31;;;;;;;39.70;20.63;;;1.50;99.90;;;;;;5021746;28;20183;-69
2022/12/09 12:39:02;;;;;;;42.33;21.57;;;1.70;99.90;;;;;;5021460;28;20234;-68
2022/12/09 12:41:52;;;;;;;49.67;22.73;;;1.80;99.90;;;;;;5022517;28;20215;-68
2022/12/09 12:47:38;;;;;;;47.97;24.63;;;1.80;99.90;;;;;;5022448;28;20656;-69
2022/12/09 12:50:19;;;;;;;56.50;28.50;;;2.00;99.90;;;;;;5019930;28;20296;-69
2022/12/09 12:53:02;;;;;;;65.00;31.13;;;1.90;99.90;;;;;;5024466;28;20675;-69
2022/12/09 12:55:52;;;;;;;56.10;24.63;;;1.90;99.90;;;;;;5026852;28;20208;-69